createdAt,value
2018-06-13T00:01:59.864Z,99543.00
2018-06-13T00:04:35.849Z,99547.00
2018-06-13T00:07:11.431Z,99543.00
2018-06-13T00:09:48.689Z,99541.00
2018-06-13T00:12:24.616Z,99543.00
2018-06-13T00:15:01.188Z,99542.00
2018-06-13T00:17:37.096Z,99539.00
2018-06-13T00:20:13.448Z,99535.00
2018-06-13T00:22:50.320Z,99535.00
2018-06-13T00:25:27.005Z,99540.00
2018-06-13T00:28:02.669Z,99529.00
2018-06-13T00:30:40.061Z,99524.00
2018-06-13T00:33:15.857Z,99519.00
2018-06-13T00:35:51.772Z,99521.00
2018-06-13T00:38:28.631Z,99528.00
2018-06-13T00:41:07.023Z,99518.00
2018-06-13T00:43:43.269Z,99522.00
2018-06-13T00:46:19.917Z,99527.00
2018-06-13T00:48:57.132Z,99528.00
2018-06-13T00:51:34.403Z,99528.00
2018-06-13T00:54:10.628Z,99532.00
2018-06-13T00:56:47.150Z,99530.00
2018-06-13T00:59:25.412Z,99532.00
2018-06-13T01:02:01.701Z,99531.00
2018-06-13T01:04:38.033Z,99531.00
2018-06-13T01:07:15.168Z,99531.00
2018-06-13T01:09:51.307Z,99529.00
2018-06-13T01:12:27.866Z,99530.00
2018-06-13T01:15:07.645Z,99531.00
2018-06-13T01:17:44.489Z,99532.00
2018-06-13T01:20:21.657Z,99527.00
2018-06-13T01:22:59.143Z,99527.00
2018-06-13T01:25:37.343Z,99525.00
2018-06-13T01:28:13.949Z,99523.00
2018-06-13T01:30:50.997Z,99523.00
2018-06-13T01:33:27.416Z,99525.00
2018-06-13T01:36:04.311Z,99515.00
2018-06-13T01:38:41.877Z,99518.00
2018-06-13T01:41:20.884Z,99512.00
2018-06-13T01:43:56.771Z,99511.00
2018-06-13T01:46:34.669Z,99511.00
2018-06-13T01:49:11.333Z,99508.00
2018-06-13T01:51:48.447Z,99510.00
2018-06-13T01:54:25.736Z,99509.00
2018-06-13T01:57:01.394Z,99501.00
2018-06-13T01:59:37.479Z,99502.00
2018-06-13T02:02:14.636Z,99507.00
2018-06-13T02:04:50.591Z,99506.00
2018-06-13T02:07:26.526Z,99514.00
2018-06-13T02:10:05.461Z,99515.00
2018-06-13T02:12:41.601Z,99517.00
2018-06-13T02:15:17.772Z,99522.00
2018-06-13T02:17:55.261Z,99520.00
2018-06-13T02:20:31.949Z,99517.00
2018-06-13T02:23:08.395Z,99514.00
2018-06-13T02:25:44.633Z,99519.00
2018-06-13T02:28:20.517Z,99525.00
2018-06-13T02:30:56.822Z,99522.00
2018-06-13T02:33:33.969Z,99519.00
2018-06-13T02:36:10.606Z,99511.00
2018-06-13T02:38:46.422Z,99515.00
2018-06-13T02:41:23.330Z,99519.00
2018-06-13T02:43:59.293Z,99521.00
2018-06-13T02:46:35.595Z,99521.00
2018-06-13T02:49:12.441Z,99524.00
2018-06-13T02:51:49.962Z,99527.00
2018-06-13T02:54:27.237Z,99529.00
2018-06-13T02:57:04.009Z,99525.00
2018-06-13T02:59:39.603Z,99527.00
2018-06-13T03:02:16.497Z,99522.00
2018-06-13T03:04:53.674Z,99522.00
2018-06-13T03:07:31.166Z,99524.00
2018-06-13T03:10:07.561Z,99532.00
2018-06-13T03:12:43.620Z,99531.00
2018-06-13T03:15:19.669Z,99528.00
2018-06-13T03:17:55.940Z,99525.00
2018-06-13T03:20:32.545Z,99527.00
2018-06-13T03:23:09.728Z,99529.00
2018-06-13T03:25:46.708Z,99525.00
2018-06-13T03:28:22.979Z,99533.00
2018-06-13T03:30:59.018Z,99535.00
2018-06-13T03:33:35.165Z,99536.00
2018-06-13T03:36:11.317Z,99539.00
2018-06-13T03:38:48.570Z,99543.00
2018-06-13T03:41:26.144Z,99552.00
2018-06-13T03:44:01.895Z,99557.00
2018-06-13T03:46:38.512Z,99557.00
2018-06-13T03:49:16.077Z,99559.00
2018-06-13T03:51:53.132Z,99560.00
2018-06-13T03:54:29.408Z,99567.00
2018-06-13T03:57:06.975Z,99573.00
2018-06-13T03:59:43.290Z,99568.00
2018-06-13T04:02:21.854Z,99571.00
2018-06-13T04:04:59.287Z,99572.00
2018-06-13T04:07:35.613Z,99582.00
2018-06-13T04:10:12.322Z,99585.00
2018-06-13T04:12:48.650Z,99576.00
2018-06-13T04:15:25.453Z,99576.00
2018-06-13T04:18:02.944Z,99577.00
2018-06-13T04:20:40.183Z,99578.00
2018-06-13T04:23:17.289Z,99579.00
2018-06-13T04:25:54.540Z,99586.00
2018-06-13T04:28:30.767Z,99591.00
2018-06-13T04:31:06.608Z,99590.00
2018-06-13T04:33:43.697Z,99591.00
2018-06-13T04:36:21.672Z,99592.00
2018-06-13T04:38:57.900Z,99591.00
2018-06-13T04:41:35.216Z,99593.00
2018-06-13T04:44:11.315Z,99596.00
2018-06-13T04:46:49.585Z,99590.00
2018-06-13T04:49:25.265Z,99597.00
2018-06-13T04:52:02.709Z,99602.00
2018-06-13T04:54:38.978Z,99606.00
2018-06-13T04:57:16.862Z,99617.00
2018-06-13T04:59:52.801Z,99614.00
2018-06-13T05:02:29.269Z,99615.00
2018-06-13T05:05:05.267Z,99622.00
2018-06-13T05:07:41.291Z,99618.00
2018-06-13T05:10:17.553Z,99621.00
2018-06-13T05:12:53.490Z,99618.00
2018-06-13T05:15:30.692Z,99621.00
2018-06-13T05:18:06.665Z,99622.00
2018-06-13T05:20:43.941Z,99622.00
2018-06-13T05:23:21.226Z,99625.00
2018-06-13T05:25:58.477Z,99628.00
2018-06-13T05:28:34.499Z,99625.00
2018-06-13T05:31:12.672Z,99624.00
2018-06-13T05:33:49.350Z,99631.00
2018-06-13T05:36:26.828Z,99622.00
2018-06-13T05:39:07.689Z,99625.00
2018-06-13T05:41:43.800Z,99617.00
2018-06-13T05:44:20.217Z,99623.00
2018-06-13T05:46:57.527Z,99615.00
2018-06-13T05:49:33.842Z,99624.00
2018-06-13T05:52:10.146Z,99625.00
2018-06-13T05:54:47.618Z,99629.00
2018-06-13T05:57:23.516Z,99624.00
2018-06-13T05:59:59.564Z,99627.00
2018-06-13T06:02:35.466Z,99631.00
2018-06-13T06:05:13.213Z,99631.00
2018-06-13T06:07:49.327Z,99633.00
2018-06-13T06:10:25.157Z,99639.00
2018-06-13T06:13:03.288Z,99638.00
2018-06-13T06:15:39.801Z,99642.00
2018-06-13T06:18:17.708Z,99637.00
2018-06-13T06:20:54.629Z,99637.00
2018-06-13T06:23:32.166Z,99635.00
2018-06-13T06:26:08.780Z,99640.00
2018-06-13T06:28:47.060Z,99639.00
2018-06-13T06:31:24.107Z,99640.00
2018-06-13T06:34:01.828Z,99640.00
2018-06-13T06:36:37.554Z,99640.00
2018-06-13T06:39:13.833Z,99641.00
2018-06-13T06:41:51.228Z,99640.00
2018-06-13T06:44:27.522Z,99646.00
2018-06-13T06:47:03.368Z,99643.00
2018-06-13T06:49:39.583Z,99653.00
2018-06-13T06:52:16.404Z,99650.00
2018-06-13T06:54:53.541Z,99647.00
2018-06-13T06:57:30.400Z,99651.00
2018-06-13T07:00:07.518Z,99650.00
2018-06-13T07:02:44.242Z,99653.00
2018-06-13T07:05:21.869Z,99659.00
2018-06-13T07:07:58.287Z,99656.00
2018-06-13T07:10:34.987Z,99651.00
2018-06-13T07:13:11.724Z,99656.00
2018-06-13T07:15:48.729Z,99662.00
2018-06-13T07:18:25.809Z,99653.00
2018-06-13T07:21:02.948Z,99651.00
2018-06-13T07:23:40.499Z,99656.00
2018-06-13T07:26:17.148Z,99659.00
2018-06-13T07:28:55.665Z,99657.00
2018-06-13T07:31:32.942Z,99660.00
2018-06-13T07:34:10.407Z,99653.00
2018-06-13T07:36:47.491Z,99649.00
2018-06-13T07:39:25.085Z,99652.00
2018-06-13T07:42:02.899Z,99660.00
2018-06-13T07:44:39.690Z,99662.00
2018-06-13T07:47:16.549Z,99668.00
2018-06-13T07:49:53.140Z,99670.00
2018-06-13T07:52:30.716Z,99677.00
2018-06-13T07:55:07.649Z,99670.00
2018-06-13T07:57:45.200Z,99679.00
2018-06-13T08:00:21.868Z,99681.00
2018-06-13T08:02:58.532Z,99678.00
2018-06-13T08:05:37.268Z,99684.00
2018-06-13T08:08:15.453Z,99686.00
2018-06-13T08:10:52.066Z,99681.00
2018-06-13T08:13:29.814Z,99680.00
2018-06-13T08:16:07.585Z,99683.00
2018-06-13T08:18:45.263Z,99686.00
2018-06-13T08:21:22.308Z,99684.00
2018-06-13T08:23:59.284Z,99676.00
2018-06-13T08:26:37.390Z,99677.00
2018-06-13T08:29:15.375Z,99675.00
2018-06-13T08:31:52.178Z,99672.00
2018-06-13T08:34:29.646Z,99677.00
2018-06-13T08:37:07.377Z,99672.00
2018-06-13T08:39:45.572Z,99680.00
2018-06-13T08:42:22.485Z,99686.00
2018-06-13T08:45:00.496Z,99686.00
2018-06-13T08:47:38.141Z,99678.00
2018-06-13T08:50:17.276Z,99683.00
2018-06-13T08:52:54.051Z,99687.00
2018-06-13T08:55:32.274Z,99687.00
2018-06-13T08:58:11.023Z,99680.00
2018-06-13T09:00:47.592Z,99673.00
2018-06-13T09:03:24.468Z,99675.00
2018-06-13T09:06:01.415Z,99671.00
2018-06-13T09:08:38.497Z,99670.00
2018-06-13T09:11:16.328Z,99672.00
2018-06-13T09:13:53.796Z,99659.00
2018-06-13T09:16:31.602Z,99668.00
2018-06-13T09:19:10.477Z,99674.00
2018-06-13T09:21:50.150Z,99675.00
2018-06-13T09:24:29.477Z,99684.00
2018-06-13T09:27:08.712Z,99690.00
2018-06-13T09:29:47.460Z,99686.00
2018-06-13T09:32:24.069Z,99688.00
2018-06-13T09:35:00.686Z,99686.00
2018-06-13T09:37:37.113Z,99697.00
2018-06-13T09:40:14.696Z,99694.00
2018-06-13T09:42:52.789Z,99688.00
2018-06-13T09:45:30.549Z,99694.00
2018-06-13T09:48:06.941Z,99694.00
2018-06-13T09:50:43.611Z,99694.00
2018-06-13T09:53:22.228Z,99689.00
2018-06-13T09:55:58.788Z,99694.00
2018-06-13T09:58:40.862Z,99690.00
2018-06-13T10:01:23.796Z,99690.00
2018-06-13T10:04:02.313Z,99683.00
2018-06-13T10:06:39.880Z,99685.00
2018-06-13T10:09:17.863Z,99682.00
2018-06-13T10:11:55.712Z,99681.00
2018-06-13T10:14:32.098Z,99683.00
2018-06-13T10:17:09.354Z,99681.00
2018-06-13T10:19:46.269Z,99682.00
2018-06-13T10:22:23.608Z,99683.00
2018-06-13T10:25:01.278Z,99680.00
2018-06-13T10:27:38.575Z,99682.00
2018-06-13T10:30:14.816Z,99674.00
2018-06-13T10:32:51.364Z,99677.00
2018-06-13T10:35:30.093Z,99679.00
2018-06-13T10:38:06.331Z,99695.00
2018-06-13T10:40:44.153Z,99687.00
2018-06-13T10:43:21.616Z,99679.00
2018-06-13T10:45:58.849Z,99683.00
2018-06-13T10:48:36.590Z,99684.00
2018-06-13T10:51:13.487Z,99677.00
2018-06-13T10:53:50.971Z,99672.00
2018-06-13T10:56:27.221Z,99668.00
2018-06-13T10:59:05.418Z,99672.00
2018-06-13T11:01:42.586Z,99680.00
2018-06-13T11:04:19.392Z,99678.00
2018-06-13T11:06:57.168Z,99680.00
2018-06-13T11:09:34.136Z,99681.00
2018-06-13T11:12:10.279Z,99683.00
2018-06-13T11:14:47.461Z,99678.00
2018-06-13T11:17:24.536Z,99676.00
2018-06-13T11:20:00.843Z,99684.00
2018-06-13T11:22:38.554Z,99684.00
2018-06-13T11:25:15.269Z,99686.00
2018-06-13T11:27:54.204Z,99686.00
2018-06-13T11:30:31.389Z,99694.00
2018-06-13T11:33:08.869Z,99691.00
2018-06-13T11:35:46.290Z,99688.00
2018-06-13T11:38:23.283Z,99692.00
2018-06-13T11:41:01.601Z,99696.00
2018-06-13T11:43:37.880Z,99690.00
2018-06-13T11:46:15.427Z,99688.00
2018-06-13T11:48:52.048Z,99682.00
2018-06-13T11:51:30.506Z,99680.00
2018-06-13T11:54:06.880Z,99670.00
2018-06-13T11:56:45.137Z,99672.00
2018-06-13T11:59:23.574Z,99667.00
2018-06-13T12:02:00.176Z,99672.00
2018-06-13T12:04:36.738Z,99672.00
2018-06-13T12:07:13.188Z,99671.00
2018-06-13T12:09:49.662Z,99673.00
2018-06-13T12:12:27.677Z,99675.00
2018-06-13T12:15:04.517Z,99677.00
2018-06-13T12:17:41.838Z,99675.00
2018-06-13T12:20:19.737Z,99673.00
2018-06-13T12:22:57.285Z,99671.00
2018-06-13T12:25:34.704Z,99676.00
2018-06-13T12:28:12.839Z,99678.00
2018-06-13T12:30:50.315Z,99681.00
2018-06-13T12:33:27.932Z,99677.00
2018-06-13T12:36:05.998Z,99676.00
2018-06-13T12:38:43.169Z,99677.00
2018-06-13T12:41:20.358Z,99670.00
2018-06-13T12:43:57.214Z,99684.00
2018-06-13T12:46:35.303Z,99680.00
2018-06-13T12:49:12.921Z,99687.00
2018-06-13T12:51:49.065Z,99685.00
2018-06-13T12:54:25.984Z,99687.00
2018-06-13T12:57:04.621Z,99693.00
2018-06-13T12:59:42.016Z,99687.00
2018-06-13T13:02:19.017Z,99681.00
2018-06-13T13:04:55.714Z,99681.00
2018-06-13T13:07:33.540Z,99689.00
2018-06-13T13:10:09.583Z,99687.00
2018-06-13T13:12:46.817Z,99693.00
2018-06-13T13:15:23.479Z,99685.00
2018-06-13T13:18:00.427Z,99688.00
2018-06-13T13:20:37.579Z,99688.00
2018-06-13T13:23:15.544Z,99692.00
2018-06-13T13:25:52.754Z,99689.00
2018-06-13T13:28:30.704Z,99683.00
2018-06-13T13:31:06.949Z,99685.00
2018-06-13T13:33:44.084Z,99690.00
2018-06-13T13:36:21.636Z,99694.00
2018-06-13T13:38:59.521Z,99699.00
2018-06-13T13:41:35.909Z,99692.00
2018-06-13T13:44:13.492Z,99692.00
2018-06-13T13:46:50.725Z,99697.00
2018-06-13T13:49:28.089Z,99703.00
2018-06-13T13:52:06.268Z,99704.00
2018-06-13T13:54:43.874Z,99707.00
2018-06-13T13:57:20.804Z,99712.00
2018-06-13T13:59:58.685Z,99715.00
2018-06-13T14:02:35.841Z,99718.00
2018-06-13T14:05:12.540Z,99717.00
2018-06-13T14:07:50.763Z,99718.00
2018-06-13T14:10:28.229Z,99724.00
2018-06-13T14:13:05.767Z,99718.00
2018-06-13T14:15:41.944Z,99723.00
2018-06-13T14:18:20.047Z,99726.00
2018-06-13T14:20:57.165Z,99734.00
2018-06-13T14:23:33.619Z,99729.00
2018-06-13T14:26:10.532Z,99732.00
2018-06-13T14:28:46.360Z,99736.00
2018-06-13T14:31:23.959Z,99733.00
2018-06-13T14:34:00.444Z,99735.00
2018-06-13T14:36:37.936Z,99733.00
2018-06-13T14:39:14.215Z,99730.00
2018-06-13T14:41:51.057Z,99732.00
2018-06-13T14:44:28.825Z,99736.00
2018-06-13T14:47:05.937Z,99733.00
2018-06-13T14:49:42.916Z,99735.00
2018-06-13T14:52:20.012Z,99729.00
2018-06-13T14:54:58.039Z,99738.00
2018-06-13T14:57:35.809Z,99737.00
2018-06-13T15:00:13.592Z,99736.00
2018-06-13T15:02:52.152Z,99742.00
2018-06-13T15:05:29.761Z,99739.00
2018-06-13T15:08:06.456Z,99735.00
2018-06-13T15:10:44.216Z,99742.00
2018-06-13T15:13:22.159Z,99744.00
2018-06-13T15:15:59.222Z,99749.00
2018-06-13T15:18:35.523Z,99758.00
2018-06-13T15:21:13.553Z,99759.00
2018-06-13T15:23:51.085Z,99765.00
2018-06-13T15:26:27.712Z,99775.00
2018-06-13T15:29:05.293Z,99779.00
2018-06-13T15:31:42.313Z,99774.00
2018-06-13T15:34:20.281Z,99766.00
2018-06-13T15:36:56.214Z,99766.00
2018-06-13T15:39:33.961Z,99767.00
2018-06-13T15:42:10.681Z,99775.00
2018-06-13T15:44:49.060Z,99773.00
2018-06-13T15:47:26.463Z,99773.00
2018-06-13T15:50:03.454Z,99780.00
2018-06-13T15:52:47.558Z,99787.00
2018-06-13T15:55:24.785Z,99786.00
2018-06-13T15:58:01.551Z,99783.00
2018-06-13T16:00:37.955Z,99788.00
2018-06-13T16:03:16.185Z,99794.00
2018-06-13T16:05:52.695Z,99805.00
2018-06-13T16:08:29.212Z,99799.00
2018-06-13T16:11:05.933Z,99805.00
2018-06-13T16:13:42.420Z,99805.00
2018-06-13T16:16:21.163Z,99816.00
2018-06-13T16:18:57.778Z,99819.00
2018-06-13T16:21:33.781Z,99826.00
2018-06-13T16:24:11.912Z,99826.00
2018-06-13T16:26:49.629Z,99837.00
2018-06-13T16:29:26.415Z,99833.00
2018-06-13T16:32:03.396Z,99833.00
2018-06-13T16:34:41.654Z,99837.00
2018-06-13T16:37:18.505Z,99846.00
2018-06-13T16:39:55.479Z,99842.00
2018-06-13T16:42:33.050Z,99844.00
2018-06-13T16:45:10.584Z,99841.00
2018-06-13T16:47:47.608Z,99844.00
2018-06-13T16:50:41.758Z,99849.00
2018-06-13T16:53:35.472Z,99858.00
2018-06-13T16:56:12.019Z,99861.00
2018-06-13T16:58:48.771Z,99854.00
2018-06-13T17:01:25.358Z,99856.00
2018-06-13T17:04:02.877Z,99856.00
2018-06-13T17:06:39.420Z,99850.00
2018-06-13T17:09:15.370Z,99864.00
2018-06-13T17:11:52.900Z,99867.00
2018-06-13T17:14:30.077Z,99861.00
2018-06-13T17:17:07.773Z,99863.00
2018-06-13T17:19:44.933Z,99868.00
2018-06-13T17:22:21.010Z,99870.00
2018-06-13T17:24:57.081Z,99871.00
2018-06-13T17:27:33.443Z,99878.00
2018-06-13T17:30:11.338Z,99878.00
2018-06-13T17:32:48.646Z,99884.00
2018-06-13T17:35:26.295Z,99886.00
2018-06-13T17:38:04.399Z,99885.00
2018-06-13T17:40:41.429Z,99891.00
2018-06-13T17:43:17.606Z,99888.00
2018-06-13T17:45:55.109Z,99891.00
2018-06-13T17:48:31.961Z,99899.00
2018-06-13T17:51:09.453Z,99891.00
2018-06-13T17:53:47.238Z,99892.00
2018-06-13T17:56:24.766Z,99890.00
2018-06-13T17:59:00.440Z,99896.00
2018-06-13T18:01:38.261Z,99898.00
2018-06-13T18:04:15.671Z,99896.00
2018-06-13T18:06:52.401Z,99905.00
2018-06-13T18:09:28.286Z,99907.00
2018-06-13T18:12:07.025Z,99914.00
2018-06-13T18:14:43.120Z,99919.00
2018-06-13T18:17:19.158Z,99921.00
2018-06-13T18:19:55.119Z,99926.00
2018-06-13T18:22:31.076Z,99931.00
2018-06-13T18:25:07.826Z,99943.00
2018-06-13T18:27:44.477Z,99943.00
2018-06-13T18:30:21.123Z,99950.00
2018-06-13T18:32:58.979Z,99951.00
2018-06-13T18:35:37.373Z,99959.00
2018-06-13T18:38:14.294Z,99960.00
2018-06-13T18:40:51.238Z,99968.00
2018-06-13T18:43:27.946Z,99966.00
2018-06-13T18:46:06.066Z,99971.00
2018-06-13T18:48:42.175Z,99967.00
2018-06-13T18:51:19.567Z,99975.00
2018-06-13T18:53:56.516Z,99981.00
2018-06-13T18:56:33.720Z,99978.00
2018-06-13T18:59:09.719Z,99977.00
2018-06-13T19:01:46.115Z,99981.00
2018-06-13T19:04:22.984Z,99980.00
2018-06-13T19:06:59.470Z,99982.00
2018-06-13T19:09:37.912Z,99986.00
2018-06-13T19:12:14.681Z,99992.00
2018-06-13T19:14:52.349Z,100002.00
2018-06-13T19:17:28.893Z,100009.00
2018-06-13T19:20:05.225Z,100004.00
2018-06-13T19:22:42.913Z,100004.00
2018-06-13T19:25:20.100Z,100001.00
2018-06-13T19:27:57.484Z,100008.00
2018-06-13T19:30:33.867Z,100004.00
2018-06-13T19:33:10.897Z,100006.00
2018-06-13T19:35:47.518Z,100004.00
2018-06-13T19:38:24.012Z,100003.00
2018-06-13T19:41:00.257Z,100006.00
2018-06-13T19:43:38.684Z,100010.00
2018-06-13T19:46:15.576Z,100009.00
2018-06-13T19:48:53.578Z,100009.00
2018-06-13T19:51:30.360Z,100013.00
2018-06-13T19:54:12.296Z,100010.00
2018-06-13T19:56:49.323Z,100013.00
2018-06-13T19:59:25.208Z,100015.00
2018-06-13T20:02:01.849Z,100023.00
2018-06-13T20:04:42.947Z,100023.00
2018-06-13T20:07:20.530Z,100024.00
2018-06-13T20:09:57.112Z,100024.00
2018-06-13T20:12:45.362Z,100029.00
2018-06-13T20:15:27.535Z,100022.00
2018-06-13T20:18:11.339Z,100022.00
2018-06-13T20:20:49.155Z,100020.00
2018-06-13T20:23:25.387Z,100024.00
2018-06-13T20:26:07.297Z,100032.00
2018-06-13T20:28:48.434Z,100028.00
2018-06-13T20:31:28.999Z,100029.00
2018-06-13T20:34:07.355Z,100025.00
2018-06-13T20:36:43.936Z,100025.00
2018-06-13T20:39:20.565Z,100027.00
2018-06-13T20:41:56.132Z,100029.00
2018-06-13T20:44:31.767Z,100033.00
2018-06-13T20:47:09.110Z,100033.00
2018-06-13T20:49:45.709Z,100033.00
2018-06-13T20:52:29.568Z,100036.00
2018-06-13T20:55:06.457Z,100033.00
2018-06-13T20:57:42.738Z,100030.00
2018-06-13T21:00:19.260Z,100029.00
2018-06-13T21:02:56.737Z,100034.00
2018-06-13T21:05:32.811Z,100039.00
2018-06-13T21:08:10.797Z,100038.00
2018-06-13T21:10:48.844Z,100038.00
2018-06-13T21:13:26.576Z,100042.00
2018-06-13T21:16:02.874Z,100043.00
2018-06-13T21:18:38.953Z,100050.00
2018-06-13T21:21:16.424Z,100047.00
2018-06-13T21:23:53.486Z,100042.00
2018-06-13T21:26:29.808Z,100046.00
2018-06-13T21:29:07.301Z,100046.00
2018-06-13T21:31:44.054Z,100040.00
2018-06-13T21:34:21.054Z,100041.00
2018-06-13T21:36:57.692Z,100039.00
2018-06-13T21:39:35.345Z,100043.00
2018-06-13T21:42:11.486Z,100043.00
2018-06-13T21:44:49.037Z,100040.00
2018-06-13T21:47:26.264Z,100047.00
2018-06-13T21:50:03.897Z,100048.00
2018-06-13T21:52:39.803Z,100054.00
2018-06-13T21:55:16.580Z,100060.00
2018-06-13T21:57:53.161Z,100059.00
2018-06-13T22:00:29.278Z,100063.00
2018-06-13T22:03:07.799Z,100065.00
2018-06-13T22:05:44.038Z,100070.00
2018-06-13T22:08:19.934Z,100069.00
2018-06-13T22:10:57.258Z,100072.00
2018-06-13T22:13:33.616Z,100073.00
2018-06-13T22:16:10.644Z,100074.00
2018-06-13T22:18:47.240Z,100076.00
2018-06-13T22:21:23.005Z,100083.00
2018-06-13T22:24:01.100Z,100082.00
2018-06-13T22:26:38.934Z,100086.00
2018-06-13T22:29:15.162Z,100083.00
2018-06-13T22:31:51.826Z,100074.00
2018-06-13T22:34:29.201Z,100075.00
2018-06-13T22:37:05.958Z,100071.00
2018-06-13T22:39:42.603Z,100078.00
2018-06-13T22:42:20.397Z,100078.00
2018-06-13T22:44:57.658Z,100081.00
2018-06-13T22:47:34.008Z,100080.00
2018-06-13T22:50:10.376Z,100084.00
2018-06-13T22:52:46.270Z,100077.00
2018-06-13T22:55:22.199Z,100075.00
2018-06-13T22:57:58.873Z,100071.00
2018-06-13T23:00:58.386Z,100078.00
2018-06-13T23:03:35.354Z,100084.00
2018-06-13T23:06:12.925Z,100079.00
2018-06-13T23:08:49.304Z,100090.00
2018-06-13T23:11:25.007Z,100093.00
2018-06-13T23:14:02.144Z,100093.00
2018-06-13T23:16:39.328Z,100093.00
2018-06-13T23:19:16.838Z,100091.00
2018-06-13T23:21:54.830Z,100091.00
2018-06-13T23:24:32.030Z,100091.00
2018-06-13T23:27:08.375Z,100093.00
2018-06-13T23:29:44.405Z,100091.00
2018-06-13T23:32:20.284Z,100096.00
2018-06-13T23:34:58.114Z,100097.00
2018-06-13T23:37:35.549Z,100099.00
2018-06-13T23:40:12.156Z,100101.00
2018-06-13T23:42:48.284Z,100096.00
2018-06-13T23:45:25.129Z,100101.00
2018-06-13T23:48:01.125Z,100102.00
2018-06-13T23:50:37.644Z,100098.00
2018-06-13T23:53:13.568Z,100098.00
2018-06-13T23:55:51.462Z,100102.00
2018-06-13T23:58:28.055Z,100101.00
